createdAt,value
2023-04-06T00:01:34.539Z,8.20
2023-04-06T00:04:04.375Z,6.00
2023-04-06T00:06:34.599Z,5.40
2023-04-06T00:09:04.137Z,5.50
2023-04-06T00:11:33.437Z,6.20
2023-04-06T00:14:02.563Z,5.70
2023-04-06T00:16:31.979Z,7.60
2023-04-06T00:19:01.900Z,8.60
2023-04-06T00:21:32.744Z,10.50
2023-04-06T00:24:01.717Z,11.60
2023-04-06T00:26:30.777Z,13.50
2023-04-06T00:29:00.734Z,11.60
2023-04-06T00:31:29.916Z,11.20
2023-04-06T00:34:00.412Z,10.80
2023-04-06T00:36:29.377Z,9.90
2023-04-06T00:38:58.521Z,9.10
2023-04-06T00:41:27.764Z,8.40
2023-04-06T00:43:56.687Z,8.30
2023-04-06T00:46:26.077Z,9.70
2023-04-06T00:48:54.873Z,8.60
2023-04-06T00:51:24.567Z,9.10
2023-04-06T00:53:53.429Z,9.70
2023-04-06T00:56:22.861Z,11.70
2023-04-06T00:58:51.770Z,10.20
2023-04-06T01:01:21.026Z,8.70
2023-04-06T01:03:51.416Z,9.00
2023-04-06T01:06:20.311Z,9.00
2023-04-06T01:08:49.421Z,10.40
2023-04-06T01:11:19.681Z,10.20
2023-04-06T01:13:48.714Z,10.10
2023-04-06T01:16:17.842Z,9.10
2023-04-06T01:18:46.724Z,10.00
2023-04-06T01:21:18.323Z,10.20
2023-04-06T01:23:50.412Z,9.10
2023-04-06T01:26:19.587Z,9.00
2023-04-06T01:28:48.609Z,10.00
2023-04-06T01:31:17.844Z,10.60
2023-04-06T01:33:47.573Z,10.90
2023-04-06T01:36:17.224Z,11.50
2023-04-06T01:38:46.838Z,9.50
2023-04-06T01:41:15.845Z,10.80
2023-04-06T01:43:45.734Z,10.20
2023-04-06T01:46:15.013Z,9.80
2023-04-06T01:48:44.605Z,9.50
2023-04-06T01:51:13.271Z,10.00
2023-04-06T01:53:42.486Z,9.50
2023-04-06T01:56:11.779Z,10.70
2023-04-06T01:58:40.812Z,10.90
2023-04-06T02:01:09.928Z,12.20
2023-04-06T02:03:38.866Z,12.00
2023-04-06T02:06:08.356Z,12.60
2023-04-06T02:08:37.113Z,10.60
2023-04-06T02:11:06.456Z,11.60
2023-04-06T02:13:35.316Z,13.20
2023-04-06T02:16:04.385Z,11.40
2023-04-06T02:18:33.651Z,11.60
2023-04-06T02:21:02.826Z,11.00
2023-04-06T02:23:31.943Z,13.00
2023-04-06T02:26:00.796Z,10.40
2023-04-06T02:28:29.945Z,12.20
2023-04-06T02:30:59.832Z,11.40
2023-04-06T02:33:29.147Z,12.20
2023-04-06T02:35:58.028Z,13.50
2023-04-06T02:38:26.903Z,10.70
2023-04-06T02:40:55.817Z,10.50
2023-04-06T02:43:24.700Z,9.70
2023-04-06T02:45:53.841Z,10.20
2023-04-06T02:48:22.730Z,10.10
2023-04-06T02:50:51.751Z,9.70
2023-04-06T02:53:20.865Z,9.90
2023-04-06T02:55:49.883Z,9.60
2023-04-06T02:58:18.569Z,8.80
2023-04-06T03:00:47.407Z,10.10
2023-04-06T03:03:16.721Z,9.60
2023-04-06T03:05:46.225Z,9.70
2023-04-06T03:08:15.239Z,9.30
2023-04-06T03:10:44.136Z,9.20
2023-04-06T03:13:13.043Z,10.70
2023-04-06T03:15:42.185Z,9.40
2023-04-06T03:18:11.203Z,10.80
2023-04-06T03:20:40.202Z,12.30
2023-04-06T03:23:09.153Z,11.10
2023-04-06T03:25:38.315Z,10.90
2023-04-06T03:28:07.699Z,11.70
2023-04-06T03:30:36.956Z,11.00
2023-04-06T03:33:06.215Z,12.80
2023-04-06T03:35:35.271Z,12.20
2023-04-06T03:38:07.259Z,11.60
2023-04-06T03:40:36.455Z,11.40
2023-04-06T03:43:06.872Z,10.80
2023-04-06T03:45:37.864Z,11.90
2023-04-06T03:48:07.876Z,11.30
2023-04-06T03:50:37.478Z,14.10
2023-04-06T03:53:07.086Z,11.40
2023-04-06T03:55:36.104Z,13.50
2023-04-06T03:58:06.100Z,12.10
2023-04-06T04:00:35.611Z,12.30
2023-04-06T04:03:04.717Z,13.10
2023-04-06T04:05:33.654Z,13.60
2023-04-06T04:08:02.712Z,12.90
2023-04-06T04:10:31.772Z,12.80
2023-04-06T04:13:02.102Z,12.80
2023-04-06T04:15:31.407Z,12.30
2023-04-06T04:18:00.519Z,12.80
2023-04-06T04:20:29.880Z,13.30
2023-04-06T04:22:59.046Z,12.90
2023-04-06T04:25:28.004Z,13.70
2023-04-06T04:27:57.117Z,12.10
2023-04-06T04:30:26.728Z,12.20
2023-04-06T04:32:56.384Z,12.60
2023-04-06T04:35:25.517Z,13.30
2023-04-06T04:37:54.439Z,13.50
2023-04-06T04:40:23.326Z,12.30
2023-04-06T04:42:52.712Z,12.00
2023-04-06T04:45:21.336Z,11.50
2023-04-06T04:47:50.372Z,10.20
2023-04-06T04:50:19.277Z,8.20
2023-04-06T04:52:48.534Z,6.80
2023-04-06T04:55:17.461Z,7.20
2023-04-06T04:57:46.523Z,10.50
2023-04-06T05:00:16.058Z,8.50
2023-04-06T05:02:45.888Z,7.70
2023-04-06T05:05:15.690Z,9.60
2023-04-06T05:07:45.031Z,9.80
2023-04-06T05:10:14.090Z,9.10
2023-04-06T05:12:42.966Z,11.70
2023-04-06T05:15:12.206Z,11.20
2023-04-06T05:17:41.582Z,10.30
2023-04-06T05:20:12.188Z,9.50
2023-04-06T05:22:41.094Z,11.20
2023-04-06T05:25:10.549Z,11.00
2023-04-06T05:27:39.828Z,10.50
2023-04-06T05:30:10.607Z,12.30
2023-04-06T05:32:40.298Z,11.90
2023-04-06T05:35:09.831Z,11.90
2023-04-06T05:37:39.320Z,12.60
2023-04-06T05:40:09.690Z,11.70
2023-04-06T05:42:40.826Z,10.50
2023-04-06T05:45:20.825Z,11.20
2023-04-06T05:47:50.293Z,11.20
2023-04-06T05:50:19.776Z,11.40
2023-04-06T05:52:49.186Z,11.60
2023-04-06T05:55:18.424Z,10.00
2023-04-06T05:57:47.863Z,11.70
2023-04-06T06:00:17.822Z,12.00
2023-04-06T06:02:47.137Z,11.60
2023-04-06T06:05:17.052Z,9.80
2023-04-06T06:07:48.238Z,12.10
2023-04-06T06:10:18.451Z,22.80
2023-04-06T06:12:48.023Z,17.80
2023-04-06T06:15:19.221Z,42.90
2023-04-06T06:17:49.670Z,11.30
2023-04-06T06:20:20.773Z,10.20
2023-04-06T06:22:51.018Z,10.70
2023-04-06T06:25:19.996Z,9.80
2023-04-06T06:27:49.418Z,8.10
2023-04-06T06:30:20.362Z,10.10
2023-04-06T06:32:52.467Z,12.50
2023-04-06T06:35:21.561Z,13.40
2023-04-06T06:37:51.072Z,12.30
2023-04-06T06:40:21.545Z,14.70
2023-04-06T06:42:50.383Z,14.80
2023-04-06T06:45:19.807Z,12.10
2023-04-06T06:47:49.552Z,17.20
2023-04-06T06:50:20.296Z,15.20
2023-04-06T06:52:50.294Z,18.70
2023-04-06T06:55:20.739Z,16.40
2023-04-06T06:57:49.812Z,15.90
2023-04-06T07:00:19.261Z,11.30
2023-04-06T07:02:51.392Z,11.50
2023-04-06T07:05:28.376Z,10.30
2023-04-06T07:07:58.028Z,10.00
2023-04-06T07:10:29.604Z,9.40
2023-04-06T07:12:59.370Z,8.30
2023-04-06T07:15:28.815Z,8.60
2023-04-06T07:17:58.075Z,8.20
2023-04-06T07:20:27.074Z,8.40
2023-04-06T07:22:56.263Z,9.00
2023-04-06T07:25:26.116Z,9.40
2023-04-06T07:27:58.495Z,7.50
2023-04-06T07:30:32.001Z,8.10
2023-04-06T07:33:01.882Z,7.60
2023-04-06T07:35:31.711Z,8.00
2023-04-06T07:38:01.676Z,7.40
2023-04-06T07:40:33.478Z,6.70
2023-04-06T07:43:04.657Z,7.40
2023-04-06T07:45:34.001Z,6.20
2023-04-06T07:48:03.115Z,6.40
2023-04-06T07:50:32.367Z,6.50
2023-04-06T07:53:03.091Z,6.20
2023-04-06T07:55:33.336Z,3.50
2023-04-06T07:58:06.204Z,3.90
2023-04-06T08:00:37.108Z,3.90
2023-04-06T08:03:07.800Z,3.90
2023-04-06T08:05:37.721Z,3.80
2023-04-06T08:08:07.383Z,4.00
2023-04-06T08:10:38.179Z,3.50
2023-04-06T08:13:09.786Z,4.00
2023-04-06T08:15:39.615Z,4.30
2023-04-06T08:18:11.524Z,3.60
2023-04-06T08:20:42.540Z,4.10
2023-04-06T08:23:12.692Z,3.90
2023-04-06T08:25:42.246Z,3.70
2023-04-06T08:28:11.965Z,3.80
2023-04-06T08:30:44.383Z,3.80
2023-04-06T08:33:14.382Z,4.00
2023-04-06T08:35:44.821Z,3.90
2023-04-06T08:38:14.679Z,4.20
2023-04-06T08:40:45.918Z,3.80
2023-04-06T08:43:15.834Z,3.80
2023-04-06T08:45:45.371Z,4.40
2023-04-06T08:48:16.405Z,4.80
2023-04-06T08:50:47.041Z,3.70
2023-04-06T08:53:18.487Z,3.60
2023-04-06T08:55:50.989Z,3.50
2023-04-06T08:58:35.134Z,3.90
2023-04-06T09:01:09.887Z,3.90
2023-04-06T09:03:42.022Z,3.70
2023-04-06T09:06:12.695Z,3.70
2023-04-06T09:08:43.601Z,4.10
2023-04-06T09:11:14.845Z,3.80
2023-04-06T09:13:56.019Z,4.00
2023-04-06T09:16:27.637Z,3.20
2023-04-06T09:19:06.848Z,4.50
2023-04-06T09:21:36.527Z,3.80
2023-04-06T09:24:06.240Z,4.00
2023-04-06T09:26:48.142Z,3.40
2023-04-06T09:29:25.781Z,4.50
2023-04-06T09:32:05.123Z,3.30
2023-04-06T09:34:41.061Z,3.60
2023-04-06T09:37:20.905Z,3.50
2023-04-06T09:39:53.070Z,4.40
2023-04-06T09:42:27.161Z,4.00
2023-04-06T09:44:56.649Z,3.80
2023-04-06T09:47:29.434Z,3.20
2023-04-06T09:50:01.169Z,3.40
2023-04-06T09:52:38.511Z,4.20
2023-04-06T09:55:10.101Z,3.40
2023-04-06T09:57:53.891Z,3.30
2023-04-06T10:00:25.062Z,4.70
2023-04-06T10:03:04.724Z,3.70
2023-04-06T10:05:43.937Z,3.10
2023-04-06T10:08:15.666Z,3.60
2023-04-06T10:10:45.886Z,6.20
2023-04-06T10:13:15.418Z,4.30
2023-04-06T10:15:45.018Z,5.00
2023-04-06T10:18:15.479Z,2.80
2023-04-06T10:21:03.821Z,3.90
2023-04-06T10:23:48.595Z,3.40
2023-04-06T10:26:22.545Z,3.20
2023-04-06T10:28:53.954Z,3.60
2023-04-06T10:31:28.863Z,3.00
2023-04-06T10:34:04.741Z,4.40
2023-04-06T10:36:35.414Z,2.60
2023-04-06T10:39:06.599Z,2.60
2023-04-06T10:41:44.543Z,2.70
2023-04-06T10:44:23.526Z,3.50
2023-04-06T10:47:02.507Z,2.70
2023-04-06T10:49:32.046Z,3.00
2023-04-06T10:52:01.502Z,2.90
2023-04-06T10:54:31.524Z,2.90
2023-04-06T10:57:00.906Z,3.00
2023-04-06T10:59:31.117Z,4.70
2023-04-06T11:02:00.796Z,4.00
2023-04-06T11:04:30.253Z,4.70
2023-04-06T11:06:59.570Z,3.60
2023-04-06T11:09:31.135Z,3.10
2023-04-06T11:12:01.101Z,3.70
2023-04-06T11:14:31.000Z,3.20
2023-04-06T11:17:00.311Z,2.90
2023-04-06T11:19:29.580Z,3.10
2023-04-06T11:22:09.200Z,2.90
2023-04-06T11:24:38.451Z,2.60
2023-04-06T11:27:09.106Z,2.70
2023-04-06T11:29:39.499Z,2.80
2023-04-06T11:32:10.501Z,3.00
2023-04-06T11:34:42.629Z,3.40
2023-04-06T11:37:13.736Z,2.90
2023-04-06T11:39:49.763Z,2.80
2023-04-06T11:42:31.108Z,2.60
2023-04-06T11:45:01.036Z,2.60
2023-04-06T11:47:33.023Z,3.10
2023-04-06T11:50:10.903Z,3.00
2023-04-06T11:52:42.611Z,3.90
2023-04-06T11:55:13.796Z,3.10
2023-04-06T11:57:45.659Z,6.10
2023-04-06T12:00:17.004Z,8.40
2023-04-06T12:02:51.085Z,7.90
2023-04-06T12:05:21.037Z,6.70
2023-04-06T12:07:51.218Z,2.50
2023-04-06T12:10:21.913Z,7.40
2023-04-06T12:12:51.553Z,6.00
2023-04-06T12:15:21.040Z,11.30
2023-04-06T12:17:51.352Z,3.10
2023-04-06T12:20:25.884Z,4.00
2023-04-06T12:22:56.542Z,3.40
2023-04-06T12:25:28.339Z,3.20
2023-04-06T12:27:58.207Z,3.30
2023-04-06T12:30:27.517Z,3.70
2023-04-06T12:32:56.842Z,2.80
2023-04-06T12:35:26.544Z,3.20
2023-04-06T12:37:55.625Z,4.70
2023-04-06T12:40:24.839Z,3.30
2023-04-06T12:42:53.910Z,3.30
2023-04-06T12:45:23.407Z,3.50
2023-04-06T12:47:53.222Z,3.20
2023-04-06T12:50:22.619Z,4.40
2023-04-06T12:52:51.949Z,4.10
2023-04-06T12:55:22.150Z,4.90
2023-04-06T12:57:51.861Z,4.90
2023-04-06T13:00:22.063Z,3.70
2023-04-06T13:02:51.663Z,3.20
2023-04-06T13:05:21.283Z,2.90
2023-04-06T13:07:50.794Z,3.30
2023-04-06T13:10:19.686Z,3.50
2023-04-06T13:12:49.067Z,2.70
2023-04-06T13:15:18.616Z,2.80
2023-04-06T13:17:47.916Z,3.90
2023-04-06T13:20:17.066Z,4.10
2023-04-06T13:22:46.363Z,3.80
2023-04-06T13:25:15.431Z,3.90
2023-04-06T13:27:47.572Z,6.50
2023-04-06T13:30:18.197Z,4.40
2023-04-06T13:32:47.227Z,3.40
2023-04-06T13:35:16.496Z,3.20
2023-04-06T13:37:46.147Z,3.40
2023-04-06T13:40:15.093Z,2.80
2023-04-06T13:42:46.484Z,3.70
2023-04-06T13:45:16.059Z,3.00
2023-04-06T13:47:45.446Z,3.60
2023-04-06T13:50:16.867Z,2.90
2023-04-06T13:52:46.416Z,3.60
2023-04-06T13:55:16.122Z,3.20
2023-04-06T13:57:45.002Z,3.00
2023-04-06T14:00:16.160Z,3.10
2023-04-06T14:02:45.644Z,2.90
2023-04-06T14:05:15.099Z,4.10
2023-04-06T14:07:44.093Z,4.40
2023-04-06T14:10:15.074Z,4.00
2023-04-06T14:12:46.079Z,4.00
2023-04-06T14:15:15.802Z,3.40
2023-04-06T14:17:45.258Z,3.50
2023-04-06T14:20:16.254Z,3.10
2023-04-06T14:22:46.094Z,4.10
2023-04-06T14:25:15.105Z,3.80
2023-04-06T14:27:45.500Z,3.20
2023-04-06T14:30:15.267Z,3.00
2023-04-06T14:32:44.330Z,4.40
2023-04-06T14:35:14.065Z,3.40
2023-04-06T14:37:43.261Z,3.60
2023-04-06T14:40:12.869Z,3.00
2023-04-06T14:42:42.293Z,2.60
2023-04-06T14:45:11.379Z,2.90
2023-04-06T14:47:40.642Z,4.60
2023-04-06T14:50:10.435Z,4.40
2023-04-06T14:52:40.156Z,2.90
2023-04-06T14:55:09.290Z,2.60
2023-04-06T14:57:38.400Z,3.80
2023-04-06T15:00:09.453Z,2.90
2023-04-06T15:02:39.532Z,3.10
2023-04-06T15:05:10.792Z,2.80
2023-04-06T15:07:40.103Z,3.20
2023-04-06T15:10:12.098Z,3.90
2023-04-06T15:12:41.553Z,3.20
2023-04-06T15:15:11.185Z,3.80
2023-04-06T15:17:41.043Z,4.00
2023-04-06T15:20:10.289Z,4.00
2023-04-06T15:22:39.104Z,3.80
2023-04-06T15:25:08.903Z,2.80
2023-04-06T15:27:37.988Z,3.30
2023-04-06T15:30:08.100Z,3.70
2023-04-06T15:32:36.890Z,4.10
2023-04-06T15:35:14.084Z,3.80
2023-04-06T15:37:43.378Z,4.20
2023-04-06T15:40:14.882Z,2.90
2023-04-06T15:42:44.407Z,3.80
2023-04-06T15:45:13.792Z,3.00
2023-04-06T15:47:44.668Z,6.30
2023-04-06T15:50:14.962Z,3.10
2023-04-06T15:52:45.153Z,5.70
2023-04-06T15:55:15.210Z,4.50
2023-04-06T15:57:45.046Z,2.60
2023-04-06T16:00:15.252Z,3.60
2023-04-06T16:02:44.619Z,3.00
2023-04-06T16:05:13.864Z,4.00
2023-04-06T16:07:43.468Z,4.80
2023-04-06T16:10:12.848Z,3.60
2023-04-06T16:12:42.782Z,4.00
2023-04-06T16:15:12.891Z,5.50
2023-04-06T16:17:44.267Z,5.10
2023-04-06T16:20:16.163Z,4.20
2023-04-06T16:22:45.242Z,4.60
2023-04-06T16:25:14.297Z,5.70
2023-04-06T16:27:43.868Z,3.80
2023-04-06T16:30:13.710Z,4.20
2023-04-06T16:32:44.141Z,5.10
2023-04-06T16:35:13.801Z,5.40
2023-04-06T16:37:43.394Z,9.30
2023-04-06T16:40:13.412Z,6.70
2023-04-06T16:42:46.647Z,3.70
2023-04-06T16:45:16.279Z,5.90
2023-04-06T16:47:45.316Z,5.80
2023-04-06T16:50:14.475Z,5.20
2023-04-06T16:52:43.661Z,8.70
2023-04-06T16:55:12.501Z,15.50
2023-04-06T16:57:41.444Z,9.10
2023-04-06T17:00:11.025Z,8.30
2023-04-06T17:02:40.169Z,9.20
2023-04-06T17:05:09.743Z,6.30
2023-04-06T17:07:38.861Z,4.30
2023-04-06T17:10:08.356Z,4.20
2023-04-06T17:12:37.301Z,5.20
2023-04-06T17:15:06.774Z,3.10
2023-04-06T17:17:36.130Z,5.90
2023-04-06T17:20:06.594Z,4.30
2023-04-06T17:22:36.499Z,4.10
2023-04-06T17:25:08.470Z,6.50
2023-04-06T17:27:37.816Z,6.60
2023-04-06T17:30:09.307Z,11.70
2023-04-06T17:32:38.859Z,15.70
2023-04-06T17:35:09.287Z,11.70
2023-04-06T17:37:39.860Z,8.70
2023-04-06T17:40:10.032Z,4.20
2023-04-06T17:42:40.386Z,3.00
2023-04-06T17:45:10.672Z,3.60
2023-04-06T17:47:41.915Z,4.60
2023-04-06T17:50:13.401Z,6.30
2023-04-06T17:55:23.799Z,5.40
2023-04-06T17:57:53.332Z,5.60
2023-04-06T18:00:24.747Z,5.80
2023-04-06T18:02:55.126Z,5.90
2023-04-06T18:05:27.762Z,6.40
2023-04-06T18:07:59.176Z,6.70
2023-04-06T18:10:28.186Z,12.20
2023-04-06T18:12:58.995Z,6.90
2023-04-06T18:15:28.217Z,4.90
2023-04-06T18:17:58.515Z,4.70
2023-04-06T18:20:28.362Z,6.70
2023-04-06T18:22:58.615Z,5.80
2023-04-06T18:25:28.024Z,9.50
2023-04-06T18:27:57.037Z,6.20
2023-04-06T18:30:26.560Z,4.80
2023-04-06T18:32:56.565Z,6.50
2023-04-06T18:35:26.074Z,4.50
2023-04-06T18:37:56.133Z,4.60
2023-04-06T18:40:39.289Z,4.60
2023-04-06T18:43:09.730Z,5.10
2023-04-06T18:45:39.394Z,3.80
2023-04-06T18:48:08.971Z,5.90
2023-04-06T18:50:37.936Z,6.00
2023-04-06T18:53:07.366Z,7.90
2023-04-06T18:55:37.829Z,5.80
2023-04-06T18:58:07.210Z,3.80
2023-04-06T19:00:36.577Z,5.80
2023-04-06T19:03:05.638Z,5.70
2023-04-06T19:05:34.926Z,3.80
2023-04-06T19:08:04.180Z,12.50
2023-04-06T19:10:35.440Z,10.60
2023-04-06T19:13:05.742Z,8.70
2023-04-06T19:15:36.528Z,3.90
2023-04-06T19:18:07.420Z,7.70
2023-04-06T19:20:37.649Z,8.80
2023-04-06T19:23:07.121Z,3.90
2023-04-06T19:25:36.835Z,4.50
2023-04-06T19:28:06.369Z,4.20
2023-04-06T19:30:35.976Z,4.60
2023-04-06T19:33:06.681Z,4.70
2023-04-06T19:35:36.895Z,3.50
2023-04-06T19:38:08.415Z,3.70
2023-04-06T19:40:39.342Z,2.90
2023-04-06T19:43:09.486Z,3.70
2023-04-06T19:45:38.965Z,4.30
2023-04-06T19:48:08.443Z,3.40
2023-04-06T19:50:38.276Z,4.60
2023-04-06T19:53:08.790Z,6.50
2023-04-06T19:55:39.640Z,4.90
2023-04-06T19:58:09.098Z,3.80
2023-04-06T20:00:40.637Z,3.80
2023-04-06T20:03:12.008Z,3.70
2023-04-06T20:05:42.268Z,5.80
2023-04-06T20:08:12.684Z,6.60
2023-04-06T20:10:42.320Z,6.10
2023-04-06T20:13:13.251Z,7.80
2023-04-06T20:15:43.957Z,9.80
2023-04-06T20:18:13.919Z,6.30
2023-04-06T20:20:43.230Z,7.00
2023-04-06T20:23:14.045Z,9.20
2023-04-06T20:25:44.432Z,9.00
2023-04-06T20:28:14.859Z,8.80
2023-04-06T20:30:46.082Z,10.30
2023-04-06T20:33:16.321Z,7.30
2023-04-06T20:35:47.306Z,9.30
2023-04-06T20:38:20.499Z,7.80
2023-04-06T20:40:54.097Z,8.60
2023-04-06T20:43:26.079Z,6.40
2023-04-06T20:45:59.996Z,7.00
2023-04-06T20:48:33.542Z,13.20
2023-04-06T20:51:05.615Z,8.30
2023-04-06T20:53:35.410Z,7.50
2023-04-06T20:56:05.377Z,3.90
2023-04-06T20:58:34.794Z,5.40
2023-04-06T21:01:04.052Z,8.60
2023-04-06T21:03:33.541Z,9.80
2023-04-06T21:06:02.850Z,7.90
2023-04-06T21:08:32.344Z,11.30
2023-04-06T21:11:02.485Z,40.60
2023-04-06T21:13:31.869Z,7.50
2023-04-06T21:16:02.100Z,8.30
2023-04-06T21:18:32.985Z,6.40
2023-04-06T21:21:02.552Z,14.60
2023-04-06T21:23:31.676Z,11.50
2023-04-06T21:26:02.579Z,5.60
2023-04-06T21:28:32.980Z,3.10
2023-04-06T21:31:08.979Z,2.70
2023-04-06T21:33:38.500Z,2.60
2023-04-06T21:36:08.926Z,2.80
2023-04-06T21:38:38.313Z,2.50
2023-04-06T21:41:07.644Z,3.00
2023-04-06T21:43:38.158Z,2.60
2023-04-06T21:46:07.745Z,3.80
2023-04-06T21:48:37.293Z,3.90
2023-04-06T21:51:06.594Z,3.40
2023-04-06T21:53:35.714Z,2.60
2023-04-06T21:56:05.639Z,2.70
2023-04-06T21:58:34.763Z,2.30
2023-04-06T22:01:04.309Z,2.10
2023-04-06T22:03:34.475Z,2.90
2023-04-06T22:06:07.471Z,2.40
2023-04-06T22:08:36.584Z,5.20
2023-04-06T22:11:10.377Z,5.20
2023-04-06T22:13:39.754Z,5.40
2023-04-06T22:16:08.841Z,7.80
2023-04-06T22:18:39.226Z,6.30
2023-04-06T22:21:09.286Z,7.70
2023-04-06T22:23:42.699Z,8.10
2023-04-06T22:26:12.573Z,10.80
2023-04-06T22:28:42.835Z,12.00
2023-04-06T22:31:11.994Z,9.00
2023-04-06T22:33:42.144Z,4.70
2023-04-06T22:36:11.641Z,5.30
2023-04-06T22:38:40.635Z,3.70
2023-04-06T22:41:09.805Z,3.50
2023-04-06T22:43:38.616Z,7.00
2023-04-06T22:46:07.445Z,6.90
2023-04-06T22:48:36.394Z,7.10
2023-04-06T22:51:05.843Z,4.80
2023-04-06T22:53:36.028Z,4.70
2023-04-06T22:56:06.003Z,4.80
2023-04-06T22:58:34.683Z,3.60
2023-04-06T23:01:05.112Z,4.30
2023-04-06T23:03:34.548Z,4.20
2023-04-06T23:06:04.117Z,4.20
2023-04-06T23:08:33.035Z,5.30
2023-04-06T23:11:02.341Z,3.50
2023-04-06T23:13:33.046Z,6.70
2023-04-06T23:16:02.685Z,4.50
2023-04-06T23:18:31.934Z,3.30
2023-04-06T23:21:01.326Z,5.40
2023-04-06T23:23:31.078Z,6.80
2023-04-06T23:25:59.847Z,6.10
2023-04-06T23:28:29.262Z,4.90
2023-04-06T23:30:58.304Z,5.20
2023-04-06T23:33:28.766Z,3.40
2023-04-06T23:35:57.727Z,4.40
2023-04-06T23:38:27.070Z,4.80
2023-04-06T23:40:56.332Z,3.80
2023-04-06T23:43:25.521Z,2.50
2023-04-06T23:45:54.341Z,3.40
2023-04-06T23:48:23.115Z,2.40
2023-04-06T23:50:52.961Z,2.80
2023-04-06T23:53:21.920Z,3.00
2023-04-06T23:55:50.853Z,3.30
2023-04-06T23:58:19.905Z,3.40
